Startpagina
METAR-TAF:

METAR-TAF

Vliegvelden :

Internationale Luchthaven Oostende-Brugge

Oostende, België

breedte: 51-12N, lengte: 002-52E, hoogte: 4 m

Actueel weer

Dit bericht is 50 minuten geleden gemaakt, om 10:20 UTC
Wind 15 kt uit het zuidwesten
Temperatuur 15°C
Vochtigheid 82%
Druk 1019 hPa
Zicht 10 km of meer
Gebroken wolken op 2200 ft
Gebroken wolken op 4000 ft

METAR: EBOS 301020Z 23015KT 9999 BKN022 BKN040 15/12 Q1019 NOSIG

Tijdstip: 12:10 (11:10 UTC)

Verwachting

Dit bericht is 6 uur en het 9 minuten geleden gemaakt, om 05:01 UTC
Verwachting geldig van 30 om 06 UTC tot 31 om 12 UTC
Wind 16 kt uit het zuidwesten
Zicht 10 km of meer
Verspreide wolken op 1400 ft
Gebroken wolken op 2000 ft
Wijzigt naar
van 31 om 08 UTC tot 31 om 10 UTC
Wind 15 kt uit het zuiden

TAF: EBOS 300501Z 3006/3112 23016KT 9999 SCT014 BKN020 BECMG 3108/3110 17015KT

Waarnemingen en weersverwachtingen van meer dan 4000 vliegvelden (METAR en TAF).

De beschikbare stations zijn de gele en rode punten op de kaart.

Ga met uw muis naar het station om de naam te zien.

Klik dan om waarnemingen en weersverwachtingen te zien.

kaart wijzigen: klik op de groene knoppen met een zwart kruis om in te zoomen, op de groene knop met een streepje om uit te zoomen of op de groene pijlen voor aangrenzende kaarten.


METAR-TAF: